createdAt,value
2018-09-26T00:01:46.398Z,102814.08
2018-09-26T00:04:17.191Z,102813.40
2018-09-26T00:06:44.164Z,102807.36
2018-09-26T00:09:12.109Z,102798.14
2018-09-26T00:11:39.215Z,102796.06
2018-09-26T00:14:06.395Z,102786.83
2018-09-26T00:16:33.503Z,102787.95
2018-09-26T00:19:01.644Z,102785.95
2018-09-26T00:21:28.640Z,102796.52
2018-09-26T00:23:55.671Z,102801.09
2018-09-26T00:26:27.363Z,102805.22
2018-09-26T00:28:54.419Z,102797.76
2018-09-26T00:31:21.568Z,102781.30
2018-09-26T00:33:48.928Z,102769.41
2018-09-26T00:36:15.919Z,102762.92
2018-09-26T00:38:42.866Z,102749.03
2018-09-26T00:41:09.968Z,102750.42
2018-09-26T00:43:37.024Z,102736.66
2018-09-26T00:46:04.481Z,102717.64
2018-09-26T00:48:31.455Z,102712.76
2018-09-26T00:50:58.592Z,102717.77
2018-09-26T00:53:25.607Z,102717.40
2018-09-26T00:55:52.579Z,102720.25
2018-09-26T00:58:19.655Z,102730.25
2018-09-26T01:00:47.072Z,102724.81
2018-09-26T01:03:14.127Z,102724.11
2018-09-26T01:05:41.176Z,102719.69
2018-09-26T01:08:08.164Z,102723.00
2018-09-26T01:10:35.161Z,102738.59
2018-09-26T01:13:02.176Z,102740.00
2018-09-26T01:15:29.169Z,102736.09
2018-09-26T01:17:56.150Z,102733.73
2018-09-26T01:20:23.540Z,102732.84
2018-09-26T01:22:50.626Z,102734.59
2018-09-26T01:25:17.607Z,102738.00
2018-09-26T01:27:44.603Z,102731.93
2018-09-26T01:30:11.588Z,102732.17
2018-09-26T01:32:38.900Z,102724.10
2018-09-26T01:35:05.891Z,102719.02
2018-09-26T01:37:32.912Z,102720.72
2018-09-26T01:40:00.428Z,102713.78
2018-09-26T01:42:27.450Z,102706.32
2018-09-26T01:44:54.524Z,102697.82
2018-09-26T01:47:21.884Z,102701.65
2018-09-26T01:49:48.885Z,102701.51
2018-09-26T01:52:15.871Z,102709.34
2018-09-26T01:54:43.227Z,102712.44
2018-09-26T01:57:10.211Z,102708.44
2018-09-26T01:59:37.295Z,102705.11
2018-09-26T02:02:04.391Z,102706.50
2018-09-26T02:04:31.451Z,102699.05
2018-09-26T02:06:58.470Z,102684.34
2018-09-26T02:09:25.444Z,102687.56
2018-09-26T02:11:52.436Z,102688.14
2018-09-26T02:14:19.416Z,102681.26
2018-09-26T02:16:46.400Z,102675.73
2018-09-26T02:19:13.536Z,102676.11
2018-09-26T02:21:40.587Z,102687.90
2018-09-26T02:24:07.595Z,102689.16
2018-09-26T02:26:34.564Z,102688.74
2018-09-26T02:29:01.556Z,102687.73
2018-09-26T02:31:28.616Z,102679.02
2018-09-26T02:33:55.880Z,102676.45
2018-09-26T02:36:23.023Z,102672.11
2018-09-26T02:38:50.068Z,102665.81
2018-09-26T02:41:17.151Z,102668.69
2018-09-26T02:43:44.211Z,102661.67
2018-09-26T02:46:11.196Z,102672.00
2018-09-26T02:48:43.867Z,102668.24
2018-09-26T02:51:10.839Z,102658.86
2018-09-26T02:53:37.830Z,102648.73
2018-09-26T02:56:05.346Z,102640.63
2018-09-26T02:58:32.432Z,102638.12
2018-09-26T03:00:59.492Z,102635.25
2018-09-26T03:03:26.507Z,102632.75
2018-09-26T03:05:53.498Z,102632.86
2018-09-26T03:08:20.483Z,102633.60
2018-09-26T03:10:48.179Z,102633.97
2018-09-26T03:13:15.114Z,102630.72
2018-09-26T03:15:42.095Z,102628.86
2018-09-26T03:18:09.104Z,102628.78
2018-09-26T03:20:36.075Z,102628.96
2018-09-26T03:23:03.099Z,102636.44
2018-09-26T03:25:30.092Z,102635.25
2018-09-26T03:27:57.071Z,102629.09
2018-09-26T03:30:24.152Z,102623.64
2018-09-26T03:32:51.225Z,102618.63
2018-09-26T03:35:18.238Z,102613.62
2018-09-26T03:37:45.271Z,102615.62
2018-09-26T03:40:12.255Z,102619.00
2018-09-26T03:42:39.292Z,102613.31
2018-09-26T03:45:06.589Z,102611.48
2018-09-26T03:47:33.647Z,102611.41
2018-09-26T03:50:00.624Z,102617.81
2018-09-26T03:52:27.600Z,102611.34
2018-09-26T03:54:54.597Z,102599.48
2018-09-26T03:57:21.647Z,102596.59
2018-09-26T03:59:48.675Z,102592.96
2018-09-26T04:02:15.760Z,102587.14
2018-09-26T04:04:42.753Z,102586.96
2018-09-26T04:07:09.807Z,102589.37
2018-09-26T04:09:37.068Z,102587.81
2018-09-26T04:12:04.060Z,102582.50
2018-09-26T04:14:31.129Z,102583.45
2018-09-26T04:16:58.135Z,102570.48
2018-09-26T04:19:25.508Z,102568.34
2018-09-26T04:21:52.475Z,102558.93
2018-09-26T04:24:19.560Z,102553.04
2018-09-26T04:26:46.704Z,102549.77
2018-09-26T04:29:13.762Z,102546.00
2018-09-26T04:31:40.747Z,102539.90
2018-09-26T04:34:08.221Z,102534.38
2018-09-26T04:36:35.199Z,102524.20
2018-09-26T04:39:02.340Z,102525.66
2018-09-26T04:41:29.349Z,102528.16
2018-09-26T04:43:56.487Z,102514.48
2018-09-26T04:46:23.458Z,102526.88
2018-09-26T04:48:57.910Z,102513.91
2018-09-26T04:51:24.877Z,102513.53
2018-09-26T04:53:51.932Z,102511.70
2018-09-26T04:56:18.907Z,102516.94
2018-09-26T04:58:46.162Z,102514.27
2018-09-26T05:01:13.227Z,102515.68
2018-09-26T05:03:40.306Z,102506.52
2018-09-26T05:06:07.296Z,102495.23
2018-09-26T05:08:34.955Z,102492.97
2018-09-26T05:11:02.009Z,102486.47
2018-09-26T05:13:29.769Z,102488.25
2018-09-26T05:15:56.732Z,102482.20
2018-09-26T05:18:23.727Z,102482.71
2018-09-26T05:20:50.804Z,102486.71
2018-09-26T05:23:17.869Z,102476.39
2018-09-26T05:25:45.195Z,102480.95
2018-09-26T05:28:12.709Z,102471.81
2018-09-26T05:30:39.760Z,102474.97
2018-09-26T05:33:06.735Z,102454.34
2018-09-26T05:35:33.903Z,102452.27
2018-09-26T05:38:01.900Z,102449.78
2018-09-26T05:40:28.964Z,102437.84
2018-09-26T05:42:56.012Z,102433.13
2018-09-26T05:45:23.038Z,102418.38
2018-09-26T05:47:50.152Z,102416.55
2018-09-26T05:50:17.164Z,102424.34
2018-09-26T05:52:44.136Z,102425.23
2018-09-26T05:55:11.247Z,102415.67
2018-09-26T05:57:38.267Z,102410.36
2018-09-26T06:00:05.268Z,102412.92
2018-09-26T06:02:32.251Z,102415.81
2018-09-26T06:04:59.268Z,102409.41
2018-09-26T06:07:26.248Z,102417.93
2018-09-26T06:09:53.303Z,102405.86
2018-09-26T06:12:20.683Z,102414.39
2018-09-26T06:14:47.653Z,102406.88
2018-09-26T06:17:14.627Z,102396.52
2018-09-26T06:19:41.643Z,102398.77
2018-09-26T06:22:08.616Z,102394.06
2018-09-26T06:24:35.849Z,102407.62
2018-09-26T06:27:03.191Z,102408.43
2018-09-26T06:29:30.247Z,102387.13
2018-09-26T06:31:57.411Z,102379.40
2018-09-26T06:34:24.525Z,102376.73
2018-09-26T06:36:51.507Z,102384.70
2018-09-26T06:39:18.579Z,102384.03
2018-09-26T06:41:45.565Z,102383.58
2018-09-26T06:44:12.539Z,102396.98
2018-09-26T06:46:40.687Z,102412.77
2018-09-26T06:49:07.848Z,102406.69
2018-09-26T06:51:34.863Z,102414.41
2018-09-26T06:54:02.716Z,102431.16
2018-09-26T06:56:29.656Z,102434.47
2018-09-26T06:58:56.643Z,102430.04
2018-09-26T07:01:23.661Z,102429.38
2018-09-26T07:03:50.764Z,102426.58
2018-09-26T07:06:17.971Z,102419.39
2018-09-26T07:08:46.489Z,102422.19
2018-09-26T07:11:14.171Z,102415.53
2018-09-26T07:13:42.919Z,102432.33
2018-09-26T07:18:53.724Z,102435.27
2018-09-26T07:21:20.795Z,102425.55
2018-09-26T07:23:47.886Z,102427.31
2018-09-26T07:26:14.863Z,102429.73
2018-09-26T07:28:43.009Z,102432.05
2018-09-26T07:31:10.477Z,102446.52
2018-09-26T07:33:41.577Z,102442.28
2018-09-26T07:36:09.875Z,102435.69
2018-09-26T07:38:38.194Z,102428.44
2018-09-26T07:41:11.324Z,102422.78
2018-09-26T07:43:42.426Z,102418.85
2018-09-26T07:46:11.172Z,102414.61
2018-09-26T07:48:38.316Z,102415.12
2018-09-26T07:51:09.490Z,102419.98
2018-09-26T07:53:39.280Z,102413.45
2018-09-26T07:56:06.319Z,102417.06
2018-09-26T07:58:33.324Z,102417.08
2018-09-26T08:01:00.723Z,102406.31
2018-09-26T08:03:27.692Z,102403.47
2018-09-26T08:05:54.699Z,102403.59
2018-09-26T08:08:22.969Z,102389.59
2018-09-26T08:10:49.967Z,102396.91
2018-09-26T08:13:17.319Z,102386.63
2018-09-26T08:15:45.517Z,102384.16
2018-09-26T08:18:16.362Z,102377.02
2018-09-26T08:20:44.754Z,102381.47
2018-09-26T08:23:13.359Z,102382.84
2018-09-26T08:25:46.275Z,102381.81
2018-09-26T08:28:18.331Z,102383.89
2018-09-26T08:30:45.350Z,102391.59
2018-09-26T08:33:12.420Z,102387.81
2018-09-26T08:35:39.567Z,102396.64
2018-09-26T08:38:06.555Z,102395.64
2018-09-26T08:40:33.580Z,102394.38
2018-09-26T08:43:00.564Z,102394.62
2018-09-26T08:45:27.641Z,102395.66
2018-09-26T08:47:54.629Z,102383.82
2018-09-26T08:50:29.236Z,102375.75
2018-09-26T08:52:56.211Z,102364.79
2018-09-26T08:55:23.204Z,102360.41
2018-09-26T08:57:50.708Z,102366.58
2018-09-26T09:00:23.689Z,102370.82
2018-09-26T09:02:51.629Z,102378.63
2018-09-26T09:05:18.624Z,102377.77
2018-09-26T09:07:45.708Z,102363.91
2018-09-26T09:10:13.399Z,102360.58
2018-09-26T09:12:40.736Z,102361.87
2018-09-26T09:15:07.832Z,102350.38
2018-09-26T09:17:34.891Z,102344.72
2018-09-26T09:20:01.885Z,102339.32
2018-09-26T09:22:35.835Z,102331.87
2018-09-26T09:25:02.860Z,102333.59
2018-09-26T09:27:29.857Z,102330.80
2018-09-26T09:29:58.096Z,102346.13
2018-09-26T09:32:25.457Z,102334.02
2018-09-26T09:34:52.439Z,102333.63
2018-09-26T09:37:19.820Z,102344.63
2018-09-26T09:39:46.800Z,102329.45
2018-09-26T09:42:15.140Z,102331.23
2018-09-26T09:44:47.133Z,102326.25
2018-09-26T09:47:17.718Z,102333.95
2018-09-26T09:49:49.061Z,102330.91
2018-09-26T09:52:19.404Z,102338.66
2018-09-26T09:54:49.930Z,102330.95
2018-09-26T09:57:20.101Z,102333.33
2018-09-26T09:59:49.584Z,102332.36
2018-09-26T10:02:26.453Z,102311.69
2018-09-26T10:04:56.085Z,102309.41
2018-09-26T10:07:25.879Z,102315.04
2018-09-26T10:09:54.054Z,102325.52
2018-09-26T10:12:21.031Z,102315.36
2018-09-26T10:14:48.417Z,102304.55
2018-09-26T10:17:15.655Z,102311.09
2018-09-26T10:19:42.631Z,102305.73
2018-09-26T10:22:09.641Z,102291.61
2018-09-26T10:24:36.665Z,102296.66
2018-09-26T10:27:03.683Z,102294.63
2018-09-26T10:29:30.661Z,102286.03
2018-09-26T10:31:57.939Z,102295.16
2018-09-26T10:36:59.220Z,102288.47
2018-09-26T10:39:26.334Z,102283.25
2018-09-26T10:41:53.383Z,102294.72
2018-09-26T10:44:20.660Z,102291.36
2018-09-26T10:46:47.636Z,102289.54
2018-09-26T10:49:14.571Z,102290.80
2018-09-26T10:51:41.924Z,102293.39
2018-09-26T10:54:08.890Z,102277.36
2018-09-26T10:56:36.080Z,102276.42
2018-09-26T10:59:03.035Z,102276.12
2018-09-26T11:01:30.065Z,102263.44
2018-09-26T11:03:57.135Z,102236.63
2018-09-26T11:06:24.399Z,102252.53
2018-09-26T11:08:51.376Z,102258.81
2018-09-26T11:11:18.460Z,102253.36
2018-09-26T11:13:45.636Z,102250.05
2018-09-26T11:16:12.617Z,102241.46
2018-09-26T11:18:40.086Z,102242.11
2018-09-26T11:21:07.160Z,102233.80
2018-09-26T11:23:34.113Z,102239.72
2018-09-26T11:26:01.118Z,102224.89
2018-09-26T11:28:28.226Z,102220.10
2018-09-26T11:30:55.175Z,102208.11
2018-09-26T11:33:22.176Z,102184.92
2018-09-26T11:35:49.156Z,102197.34
2018-09-26T11:38:16.761Z,102174.38
2018-09-26T11:40:43.815Z,102185.08
2018-09-26T11:43:10.846Z,102185.70
2018-09-26T11:45:37.944Z,102175.13
2018-09-26T11:48:04.923Z,102175.80
2018-09-26T11:50:31.907Z,102183.14
2018-09-26T11:52:58.923Z,102174.50
2018-09-26T11:55:26.044Z,102177.54
2018-09-26T11:57:53.325Z,102192.90
2018-09-26T12:00:21.116Z,102178.67
2018-09-26T12:02:48.224Z,102167.77
2018-09-26T12:05:15.419Z,102162.63
2018-09-26T12:07:42.479Z,102162.70
2018-09-26T12:10:09.568Z,102163.59
2018-09-26T12:12:36.732Z,102145.77
2018-09-26T12:15:03.765Z,102112.95
2018-09-26T12:17:30.848Z,102125.92
2018-09-26T12:19:57.823Z,102147.17
2018-09-26T12:22:31.534Z,102134.34
2018-09-26T12:24:58.476Z,102136.73
2018-09-26T12:27:25.473Z,102142.14
2018-09-26T12:29:52.804Z,102138.19
2018-09-26T12:32:20.343Z,102125.92
2018-09-26T12:34:47.427Z,102123.05
2018-09-26T12:37:14.678Z,102128.94
2018-09-26T12:39:41.705Z,102120.06
2018-09-26T12:42:08.757Z,102118.23
2018-09-26T12:44:36.107Z,102117.95
2018-09-26T12:47:03.228Z,102122.39
2018-09-26T12:49:30.291Z,102128.02
2018-09-26T12:51:57.280Z,102126.66
2018-09-26T12:54:24.271Z,102106.35
2018-09-26T12:56:51.651Z,102118.16
2018-09-26T12:59:18.647Z,102104.23
2018-09-26T13:01:45.627Z,102117.10
2018-09-26T13:04:13.167Z,102121.59
2018-09-26T13:06:40.105Z,102129.78
2018-09-26T13:09:07.245Z,102114.20
2018-09-26T13:11:34.340Z,102119.08
2018-09-26T13:14:01.317Z,102117.14
2018-09-26T13:16:28.295Z,102113.14
2018-09-26T13:18:55.372Z,102115.08
2018-09-26T13:21:22.364Z,102116.19
2018-09-26T13:23:49.368Z,102111.28
2018-09-26T13:26:16.616Z,102107.27
2018-09-26T13:28:43.596Z,102103.52
2018-09-26T13:31:10.900Z,102102.06
2018-09-26T13:33:37.913Z,102097.95
2018-09-26T13:36:04.919Z,102090.47
2018-09-26T13:38:32.004Z,102091.13
2018-09-26T13:40:58.984Z,102080.31
2018-09-26T13:43:26.264Z,102083.81
2018-09-26T13:45:53.531Z,102083.05
2018-09-26T13:48:20.559Z,102083.05
2018-09-26T13:50:47.924Z,102083.98
2018-09-26T13:53:14.903Z,102080.77
2018-09-26T13:55:41.886Z,102069.38
2018-09-26T13:58:08.902Z,102063.72
2018-09-26T14:00:35.884Z,102071.74
2018-09-26T14:03:02.895Z,102071.66
2018-09-26T14:05:30.045Z,102071.14
2018-09-26T14:07:57.124Z,102074.62
2018-09-26T14:10:24.224Z,102069.83
2018-09-26T14:12:51.250Z,102066.84
2018-09-26T14:15:18.519Z,102064.28
2018-09-26T14:17:45.493Z,102050.31
2018-09-26T14:20:12.798Z,102052.54
2018-09-26T14:22:39.847Z,102059.25
2018-09-26T14:25:06.862Z,102056.84
2018-09-26T14:27:33.875Z,102059.86
2018-09-26T14:30:00.875Z,102052.64
2018-09-26T14:32:28.167Z,102054.86
2018-09-26T14:34:55.157Z,102055.66
2018-09-26T14:37:29.280Z,102063.52
2018-09-26T14:39:56.266Z,102050.63
2018-09-26T14:42:23.337Z,102040.95
2018-09-26T14:44:50.448Z,102055.92
2018-09-26T14:47:17.538Z,102057.53
2018-09-26T14:49:44.556Z,102043.58
2018-09-26T14:52:11.658Z,102054.33
2018-09-26T14:54:38.639Z,102046.44
2018-09-26T14:57:05.877Z,102052.03
2018-09-26T14:59:33.011Z,102052.03
2018-09-26T15:02:06.981Z,102049.02
2018-09-26T15:04:34.015Z,102047.67
2018-09-26T15:07:00.996Z,102044.30
2018-09-26T15:09:28.239Z,102051.63
2018-09-26T15:11:55.237Z,102048.52
2018-09-26T15:14:22.260Z,102046.30
2018-09-26T15:16:49.519Z,102049.91
2018-09-26T15:19:16.708Z,102041.70
2018-09-26T15:21:43.915Z,102043.45
2018-09-26T15:24:11.035Z,102043.77
2018-09-26T15:26:38.162Z,102041.78
2018-09-26T15:29:05.467Z,102040.52
2018-09-26T15:31:32.464Z,102045.91
2018-09-26T15:33:59.435Z,102053.11
2018-09-26T15:36:26.516Z,102056.13
2018-09-26T15:38:54.148Z,102066.84
2018-09-26T15:41:21.469Z,102057.89
2018-09-26T15:43:48.407Z,102049.17
2018-09-26T15:46:15.463Z,102057.89
2018-09-26T15:48:42.503Z,102052.11
2018-09-26T15:51:09.480Z,102050.63
2018-09-26T15:53:36.467Z,102048.41
2018-09-26T15:56:03.776Z,102041.76
2018-09-26T15:58:30.769Z,102051.72
2018-09-26T16:00:57.746Z,102042.77
2018-09-26T16:03:25.256Z,102038.75
2018-09-26T16:05:52.232Z,102048.23
2018-09-26T16:08:19.255Z,102051.23
2018-09-26T16:10:46.257Z,102057.70
2018-09-26T16:13:13.439Z,102065.50
2018-09-26T16:15:40.510Z,102061.70
2018-09-26T16:18:07.604Z,102070.72
2018-09-26T16:20:34.551Z,102065.50
2018-09-26T16:23:01.652Z,102062.64
2018-09-26T16:25:29.049Z,102071.91
2018-09-26T16:27:56.135Z,102071.52
2018-09-26T16:30:23.268Z,102077.97
2018-09-26T16:32:50.190Z,102071.33
2018-09-26T16:35:17.211Z,102073.78
2018-09-26T16:37:44.279Z,102082.86
2018-09-26T16:40:11.315Z,102081.50
2018-09-26T16:42:38.743Z,102057.48
2018-09-26T16:45:05.868Z,102065.78
2018-09-26T16:47:32.822Z,102054.77
2018-09-26T16:49:59.824Z,102062.67
2018-09-26T16:52:26.867Z,102060.45
2018-09-26T16:54:53.891Z,102057.91
2018-09-26T16:57:20.964Z,102053.25
2018-09-26T16:59:47.961Z,102055.39
2018-09-26T17:02:15.209Z,102050.41
2018-09-26T17:04:48.927Z,102044.55
2018-09-26T17:07:15.997Z,102048.47
2018-09-26T17:09:42.916Z,102048.47
2018-09-26T17:12:09.981Z,102051.39
2018-09-26T17:14:37.360Z,102043.48
2018-09-26T17:17:04.355Z,102043.69
2018-09-26T17:19:31.387Z,102046.22
2018-09-26T17:21:58.331Z,102054.13
2018-09-26T17:24:25.389Z,102057.14
2018-09-26T17:26:52.331Z,102054.13
2018-09-26T17:29:19.296Z,102055.88
2018-09-26T17:31:46.276Z,102056.45
2018-09-26T17:34:13.582Z,102051.59
2018-09-26T17:36:40.594Z,102045.94
2018-09-26T17:39:07.897Z,102051.59
2018-09-26T17:41:34.928Z,102041.26
2018-09-26T17:44:02.024Z,102051.98
2018-09-26T17:46:29.088Z,102054.00
2018-09-26T17:48:56.140Z,102057.00
2018-09-26T17:51:23.117Z,102055.53
2018-09-26T17:53:50.101Z,102055.64
2018-09-26T17:56:17.096Z,102054.09
2018-09-26T17:58:44.172Z,102050.58
2018-09-26T18:01:11.234Z,102054.09
2018-09-26T18:03:38.224Z,102057.19
2018-09-26T18:06:05.606Z,102050.76
2018-09-26T18:08:32.614Z,102040.23
2018-09-26T18:10:59.664Z,102026.77
2018-09-26T18:13:26.671Z,102028.03
2018-09-26T18:15:53.636Z,102037.02
2018-09-26T18:18:20.701Z,102034.64
2018-09-26T18:20:48.036Z,102037.37
2018-09-26T18:23:15.047Z,102034.08
2018-09-26T18:25:42.108Z,102034.08
2018-09-26T18:28:09.100Z,102034.10
2018-09-26T18:30:36.527Z,102038.48
2018-09-26T18:33:03.676Z,102048.41
2018-09-26T18:35:30.647Z,102049.28
2018-09-26T18:37:57.640Z,102048.02
2018-09-26T18:40:24.612Z,102055.20
2018-09-26T18:42:51.583Z,102059.22
2018-09-26T18:45:18.582Z,102060.87
2018-09-26T18:47:45.644Z,102054.55
2018-09-26T18:50:12.817Z,102059.61
2018-09-26T18:52:40.192Z,102057.44
2018-09-26T18:55:07.220Z,102058.23
2018-09-26T18:57:34.243Z,102057.84
2018-09-26T19:00:01.228Z,102050.36
2018-09-26T19:02:28.304Z,102051.03
2018-09-26T19:04:55.475Z,102059.03
2018-09-26T19:07:22.376Z,102052.58
2018-09-26T19:09:49.495Z,102050.36
2018-09-26T19:12:16.584Z,102045.48
2018-09-26T19:14:43.672Z,102043.71
2018-09-26T19:17:10.651Z,102052.77
2018-09-26T19:19:37.932Z,102069.95
2018-09-26T19:22:04.911Z,102065.44
2018-09-26T19:24:31.972Z,102066.83
2018-09-26T19:26:59.042Z,102070.42
2018-09-26T19:29:26.060Z,102071.90
2018-09-26T19:31:53.039Z,102058.05
2018-09-26T19:34:20.056Z,102067.78
2018-09-26T19:36:47.045Z,102061.08
2018-09-26T19:39:14.392Z,102049.16
2018-09-26T19:41:41.374Z,102047.70
2018-09-26T19:44:08.351Z,102055.09
2018-09-26T19:46:35.375Z,102049.66
2018-09-26T19:49:02.387Z,102059.30
2018-09-26T19:51:29.370Z,102058.03
2018-09-26T19:53:56.690Z,102057.63
2018-09-26T19:56:23.821Z,102056.02
2018-09-26T19:58:50.659Z,102062.14
2018-09-26T20:01:17.655Z,102062.72
2018-09-26T20:03:44.636Z,102057.30
2018-09-26T20:06:11.615Z,102063.44
2018-09-26T20:08:38.876Z,102064.11
2018-09-26T20:11:05.917Z,102064.19
2018-09-26T20:13:32.892Z,102070.03
2018-09-26T20:15:59.877Z,102076.17
2018-09-26T20:18:27.171Z,102074.12
2018-09-26T20:20:54.143Z,102077.26
2018-09-26T20:23:21.305Z,102075.52
2018-09-26T20:25:48.308Z,102086.05
2018-09-26T20:28:15.284Z,102083.92
2018-09-26T20:30:42.257Z,102078.66
2018-09-26T20:33:09.364Z,102080.13
2018-09-26T20:35:36.323Z,102090.17
2018-09-26T20:38:04.259Z,102082.66
2018-09-26T20:40:31.327Z,102084.59
2018-09-26T20:42:58.303Z,102082.06
2018-09-26T20:45:25.924Z,102080.23
2018-09-26T20:47:52.904Z,102069.80
2018-09-26T20:50:19.875Z,102079.84
2018-09-26T20:52:46.855Z,102072.33
2018-09-26T20:55:13.816Z,102073.03
2018-09-26T20:57:40.916Z,102058.60
2018-09-26T21:00:07.912Z,102039.22
2018-09-26T21:02:34.892Z,102044.59
2018-09-26T21:05:02.097Z,102024.98
2018-09-26T21:07:29.084Z,102034.52
2018-09-26T21:09:56.180Z,102046.30
2018-09-26T21:12:23.245Z,102057.26
2018-09-26T21:14:50.219Z,102049.91
2018-09-26T21:17:17.342Z,102060.93
2018-09-26T21:19:44.407Z,102068.02
2018-09-26T21:22:11.367Z,102066.20
2018-09-26T21:24:38.603Z,102056.94
2018-09-26T21:29:47.303Z,102044.84
2018-09-26T21:32:14.286Z,102045.15
2018-09-26T21:34:41.268Z,102062.67
2018-09-26T21:37:08.255Z,102058.59
2018-09-26T21:39:35.277Z,102067.73
2018-09-26T21:42:02.271Z,102068.72
2018-09-26T21:44:29.254Z,102065.39
2018-09-26T21:46:56.265Z,102064.02
2018-09-26T21:49:23.248Z,102061.68
2018-09-26T21:51:50.232Z,102066.86
2018-09-26T21:54:17.241Z,102069.19
2018-09-26T21:56:44.243Z,102072.99
2018-09-26T21:59:11.218Z,102072.01
2018-09-26T22:01:38.204Z,102071.80
2018-09-26T22:04:05.191Z,102078.64
2018-09-26T22:06:32.172Z,102079.91
2018-09-26T22:08:59.140Z,102077.58
2018-09-26T22:11:26.189Z,102074.45
2018-09-26T22:13:53.164Z,102066.55
2018-09-26T22:16:20.366Z,102076.98
2018-09-26T22:18:47.729Z,102077.37
2018-09-26T22:21:14.707Z,102073.95
2018-09-26T22:23:41.692Z,102076.00
2018-09-26T22:26:08.665Z,102066.07
2018-09-26T22:28:35.721Z,102067.33
2018-09-26T22:31:02.755Z,102074.84
2018-09-26T22:33:30.083Z,102069.39
2018-09-26T22:35:57.405Z,102075.13
2018-09-26T22:38:24.436Z,102075.52
2018-09-26T22:40:51.463Z,102068.20
2018-09-26T22:43:18.889Z,102067.38
2018-09-26T22:45:45.951Z,102060.73
2018-09-26T22:48:12.923Z,102064.52
2018-09-26T22:50:40.086Z,102061.39
2018-09-26T22:53:07.202Z,102068.88
2018-09-26T22:55:34.203Z,102062.28
2018-09-26T22:58:02.330Z,102067.13
2018-09-26T23:00:29.323Z,102057.40
2018-09-26T23:02:56.296Z,102049.41
2018-09-26T23:05:23.294Z,102053.31
2018-09-26T23:07:50.264Z,102058.66
2018-09-26T23:10:17.372Z,102059.16
2018-09-26T23:12:44.599Z,102057.11
2018-09-26T23:15:11.835Z,102048.45
2018-09-26T23:17:38.907Z,102052.92
2018-09-26T23:20:06.159Z,102046.87
2018-09-26T23:22:33.148Z,102043.00
2018-09-26T23:25:00.124Z,102050.20
2018-09-26T23:27:27.268Z,102048.05
2018-09-26T23:32:35.823Z,102045.14
2018-09-26T23:35:02.819Z,102041.62
2018-09-26T23:37:29.795Z,102052.25
2018-09-26T23:39:57.079Z,102044.46
2018-09-26T23:42:24.043Z,102041.42
2018-09-26T23:44:51.020Z,102037.54
2018-09-26T23:47:18.220Z,102031.22
2018-09-26T23:49:45.202Z,102034.21
2018-09-26T23:52:12.184Z,102031.41
2018-09-26T23:54:39.206Z,102029.75
2018-09-26T23:59:40.036Z,102024.21
